Time;durP1;ratioP1;P1;durP2;ratioP2;P2;SDS_P1;SDS_P2;PMS_P1;PMS_P2;Temp;Humidity;BMP_temperature;BMP_pressure;BME280_temperature;BME280_humidity;BME280_pressure;Samples;Min_cycle;Max_cycle;Signal;HPM_P1;HPM_P2
2021/12/19 00:00:25;;;;;;;43.00;23.10;;;;;;;;;;5016199;28;20273;-59
2021/12/19 00:08:30;;;;;;;47.23;24.40;;;;;;;;;;5010907;28;20238;-60
2021/12/19 00:10:57;;;;;;;44.50;24.50;;;;;;;;;;5013170;28;20243;-60
2021/12/19 00:13:25;;;;;;;46.37;24.20;;;;;;;;;;5010675;28;20279;-60
2021/12/19 00:15:51;;;;;;;45.40;24.00;;;;;;;;;;5005106;28;20275;-60
2021/12/19 00:18:17;;;;;;;42.87;22.33;;;;;;;;;;4999326;28;20267;-60
2021/12/19 00:20:43;;;;;;;46.13;22.50;;;;;;;;;;5015816;28;20235;-59
2021/12/19 00:23:09;;;;;;;41.50;22.43;;;;;;;;;;5021226;28;20283;-60
2021/12/19 00:25:35;;;;;;;41.87;21.87;;;;;;;;;;5012772;28;21022;-60
2021/12/19 00:28:01;;;;;;;40.40;22.10;;;;;;;;;;5012001;28;20540;-60
2021/12/19 00:30:27;;;;;;;40.87;22.33;;;;;;;;;;5020959;28;20232;-60
2021/12/19 00:32:52;;;;;;;41.13;21.90;;;;;;;;;;5004121;28;20279;-59
2021/12/19 00:35:19;;;;;;;41.67;22.60;;;;;;;;;;5008528;28;20255;-60
2021/12/19 00:37:45;;;;;;;41.70;21.30;;;;;;;;;;5012824;28;20233;-60
2021/12/19 00:40:11;;;;;;;38.30;20.23;;;;;;;;;;5006421;28;21300;-60
2021/12/19 00:42:37;;;;;;;40.30;20.70;;;;;;;;;;5014083;28;22107;-60
2021/12/19 00:45:12;;;;;;;40.63;20.37;;;;;;;;;;5007662;28;20244;-60
2021/12/19 00:47:38;;;;;;;36.23;20.63;;;;;;;;;;5007329;28;20242;-60
2021/12/19 00:50:04;;;;;;;35.83;20.70;;;;;;;;;;5004867;28;20221;-59
2021/12/19 00:52:30;;;;;;;36.83;20.90;;;;;;;;;;5001907;28;20687;-60
2021/12/19 00:54:56;;;;;;;38.80;20.43;;;;;;;;;;5003218;28;20437;-60
2021/12/19 00:57:22;;;;;;;37.47;19.53;;;;;;;;;;5002656;28;20257;-60
2021/12/19 00:59:48;;;;;;;42.93;21.83;;;;;;;;;;5007349;28;20962;-60
2021/12/19 01:02:14;;;;;;;39.30;20.27;;;;;;;;;;5003450;28;22209;-59
2021/12/19 01:04:40;;;;;;;40.37;19.50;;;;;;;;;;5011155;28;20314;-59
2021/12/19 01:07:06;;;;;;;36.33;18.97;;;;;;;;;;4994047;28;20243;-60
2021/12/19 01:09:32;;;;;;;36.40;19.23;;;;;;;;;;5014009;28;20237;-59
2021/12/19 01:11:58;;;;;;;32.87;18.90;;;;;;;;;;5001019;28;20224;-59
2021/12/19 01:14:24;;;;;;;36.20;19.10;;;;;;;;;;5016750;28;20764;-59
2021/12/19 01:16:50;;;;;;;31.13;17.97;;;;;;;;;;5019755;28;20240;-59
2021/12/19 01:19:16;;;;;;;34.23;18.33;;;;;;;;;;5009672;28;20735;-60
2021/12/19 01:21:42;;;;;;;33.63;18.03;;;;;;;;;;5010564;28;20240;-59
2021/12/19 01:24:08;;;;;;;37.10;18.17;;;;;;;;;;5014035;28;20479;-60
2021/12/19 01:26:34;;;;;;;36.23;17.93;;;;;;;;;;5013982;28;20641;-59
2021/12/19 01:29:00;;;;;;;32.30;17.90;;;;;;;;;;5016944;28;20695;-59
2021/12/19 01:31:26;;;;;;;27.57;16.43;;;;;;;;;;5014038;28;20231;-60
2021/12/19 01:33:52;;;;;;;27.93;16.80;;;;;;;;;;5000580;28;20257;-59
2021/12/19 01:36:18;;;;;;;31.27;17.57;;;;;;;;;;5006640;28;20271;-59
2021/12/19 01:38:44;;;;;;;28.60;17.43;;;;;;;;;;4989151;28;20237;-60
2021/12/19 01:41:10;;;;;;;30.73;17.30;;;;;;;;;;4989298;28;20332;-60
2021/12/19 01:43:36;;;;;;;28.23;17.03;;;;;;;;;;5004077;28;20323;-60
2021/12/19 01:46:02;;;;;;;30.50;16.83;;;;;;;;;;5004280;28;20748;-60
2021/12/19 01:48:28;;;;;;;28.73;16.37;;;;;;;;;;5012900;28;20240;-59
2021/12/19 01:50:54;;;;;;;26.63;15.80;;;;;;;;;;5005817;28;20317;-60
2021/12/19 01:53:20;;;;;;;27.80;16.20;;;;;;;;;;5013052;28;24791;-59
2021/12/19 01:55:47;;;;;;;23.77;15.17;;;;;;;;;;5018424;28;20669;-60
2021/12/19 01:58:13;;;;;;;26.87;16.33;;;;;;;;;;5013059;28;20236;-59
2021/12/19 02:00:40;;;;;;;24.57;14.97;;;;;;;;;;5015507;28;20375;-59
2021/12/19 02:03:06;;;;;;;25.60;15.43;;;;;;;;;;5010291;28;22898;-60
2021/12/19 02:05:32;;;;;;;23.23;14.83;;;;;;;;;;5018594;28;20788;-60
2021/12/19 02:07:59;;;;;;;22.23;15.23;;;;;;;;;;5016687;28;20701;-59
2021/12/19 02:10:26;;;;;;;23.20;14.40;;;;;;;;;;5028125;28;20789;-59
2021/12/19 02:12:52;;;;;;;24.40;15.23;;;;;;;;;;5024254;28;20323;-60
2021/12/19 02:15:20;;;;;;;22.80;14.43;;;;;;;;;;5010596;28;20500;-60
2021/12/19 02:17:46;;;;;;;23.13;14.93;;;;;;;;;;5002584;28;20236;-60
2021/12/19 02:20:13;;;;;;;24.33;15.33;;;;;;;;;;5021267;28;20736;-60
2021/12/19 02:22:39;;;;;;;20.40;14.40;;;;;;;;;;5018645;28;21485;-60
2021/12/19 02:25:05;;;;;;;21.17;13.80;;;;;;;;;;5008521;28;20243;-60
2021/12/19 02:27:31;;;;;;;21.73;13.77;;;;;;;;;;5013402;28;20232;-59
2021/12/19 02:29:57;;;;;;;21.80;14.30;;;;;;;;;;5023289;28;20239;-60
2021/12/19 02:32:24;;;;;;;21.67;13.23;;;;;;;;;;5020227;28;20250;-59
2021/12/19 02:34:53;;;;;;;23.77;13.77;;;;;;;;;;5014701;28;20239;-60
2021/12/19 02:40:25;;;;;;;19.47;12.77;;;;;;;;;;4991384;28;20270;-60
2021/12/19 02:48:20;;;;;;;18.53;12.47;;;;;;;;;;5009195;28;20281;-60
2021/12/19 02:50:50;;;;;;;20.03;13.43;;;;;;;;;;5006899;28;20235;-59
2021/12/19 02:53:23;;;;;;;19.63;12.90;;;;;;;;;;5013885;28;20238;-60
2021/12/19 02:55:49;;;;;;;18.40;12.63;;;;;;;;;;5008260;28;20647;-60
2021/12/19 02:58:15;;;;;;;18.17;11.87;;;;;;;;;;5004784;28;20246;-59
2021/12/19 03:00:41;;;;;;;22.77;13.17;;;;;;;;;;5004409;28;20239;-60
2021/12/19 03:03:07;;;;;;;19.23;13.27;;;;;;;;;;5000385;28;20235;-60
2021/12/19 03:05:33;;;;;;;18.17;12.73;;;;;;;;;;5013603;28;20258;-60
2021/12/19 03:08:01;;;;;;;20.83;12.43;;;;;;;;;;5010903;28;20448;-60
2021/12/19 03:18:29;;;;;;;20.27;12.67;;;;;;;;;;4992985;28;20424;-60
2021/12/19 03:20:55;;;;;;;16.93;12.03;;;;;;;;;;5004766;28;20229;-60
2021/12/19 03:23:22;;;;;;;21.87;13.23;;;;;;;;;;5007031;28;20593;-60
2021/12/19 03:25:47;;;;;;;20.90;13.00;;;;;;;;;;4996504;28;20254;-60
2021/12/19 03:28:14;;;;;;;21.83;13.30;;;;;;;;;;5006688;28;20216;-60
2021/12/19 03:30:40;;;;;;;19.37;12.23;;;;;;;;;;4997180;28;20232;-60
2021/12/19 03:33:06;;;;;;;21.20;13.13;;;;;;;;;;5004700;28;20232;-60
2021/12/19 03:35:32;;;;;;;20.00;13.10;;;;;;;;;;5018142;28;20243;-60
2021/12/19 03:37:59;;;;;;;21.33;13.37;;;;;;;;;;5014019;28;20232;-60
2021/12/19 03:40:35;;;;;;;18.87;12.93;;;;;;;;;;5010782;28;20668;-60
2021/12/19 03:43:01;;;;;;;19.60;12.47;;;;;;;;;;5001294;28;20243;-60
2021/12/19 03:45:27;;;;;;;23.93;13.20;;;;;;;;;;5005245;28;20633;-59
2021/12/19 03:47:53;;;;;;;20.73;12.30;;;;;;;;;;4990417;28;20245;-60
2021/12/19 03:50:22;;;;;;;19.53;12.80;;;;;;;;;;5018868;28;20254;-60
2021/12/19 03:52:48;;;;;;;21.43;12.90;;;;;;;;;;5018888;28;20240;-60
2021/12/19 03:55:13;;;;;;;19.60;13.10;;;;;;;;;;5016392;28;20263;-60
2021/12/19 03:57:39;;;;;;;20.67;13.43;;;;;;;;;;5022366;28;20689;-60
2021/12/19 04:00:06;;;;;;;21.20;13.07;;;;;;;;;;5015209;28;20926;-60
2021/12/19 04:02:32;;;;;;;21.67;14.00;;;;;;;;;;5022053;28;20568;-60
2021/12/19 04:04:59;;;;;;;21.20;12.93;;;;;;;;;;5020584;28;20231;-60
2021/12/19 04:07:25;;;;;;;20.53;12.87;;;;;;;;;;5027419;28;21956;-60
2021/12/19 04:09:51;;;;;;;23.30;13.60;;;;;;;;;;5026763;28;20875;-60
2021/12/19 04:12:17;;;;;;;19.73;13.30;;;;;;;;;;5026571;28;20334;-60
2021/12/19 04:14:43;;;;;;;22.00;13.40;;;;;;;;;;5025047;28;20291;-60
2021/12/19 04:17:09;;;;;;;22.43;13.33;;;;;;;;;;5024716;28;21298;-60
2021/12/19 04:19:35;;;;;;;19.60;12.57;;;;;;;;;;5006833;28;20574;-60
2021/12/19 04:22:01;;;;;;;21.90;13.37;;;;;;;;;;5018868;28;20234;-60
2021/12/19 04:24:27;;;;;;;20.70;13.17;;;;;;;;;;5010790;28;20773;-60
2021/12/19 04:26:54;;;;;;;19.07;12.67;;;;;;;;;;5012296;28;20659;-60
2021/12/19 04:29:20;;;;;;;21.30;13.70;;;;;;;;;;5013260;28;20731;-60
2021/12/19 04:31:46;;;;;;;19.17;13.23;;;;;;;;;;5011029;28;20238;-60
2021/12/19 04:34:13;;;;;;;18.57;12.60;;;;;;;;;;5013655;28;20231;-60
2021/12/19 04:36:42;;;;;;;18.63;12.87;;;;;;;;;;5016580;28;20240;-60
2021/12/19 05:00:13;;;;;;;16.90;12.13;;;;;;;;;;5014554;28;20243;-60
2021/12/19 05:15:51;;;;;;;19.00;11.67;;;;;;;;;;5007755;28;20239;-60
2021/12/19 05:18:19;;;;;;;18.20;11.70;;;;;;;;;;5012076;28;20272;-60
2021/12/19 05:20:54;;;;;;;15.67;10.93;;;;;;;;;;5021416;28;20689;-60
2021/12/19 05:23:37;;;;;;;16.67;11.37;;;;;;;;;;5010403;28;20966;-60
2021/12/19 05:26:03;;;;;;;17.63;11.30;;;;;;;;;;5016998;28;20263;-60
2021/12/19 05:28:29;;;;;;;16.10;11.20;;;;;;;;;;5018804;28;20231;-60
2021/12/19 05:30:56;;;;;;;16.00;10.57;;;;;;;;;;5022198;28;20232;-60
2021/12/19 05:33:22;;;;;;;17.00;10.80;;;;;;;;;;5020212;28;20725;-60
2021/12/19 05:36:05;;;;;;;17.77;11.17;;;;;;;;;;5008762;28;20290;-60
2021/12/19 05:46:35;;;;;;;16.40;11.57;;;;;;;;;;5013322;28;20231;-60
2021/12/19 05:49:04;;;;;;;16.97;11.27;;;;;;;;;;5012204;28;20228;-60
2021/12/19 05:51:30;;;;;;;16.87;11.47;;;;;;;;;;5016385;28;20236;-60
2021/12/19 05:53:55;;;;;;;16.90;11.40;;;;;;;;;;5012563;28;20788;-60
2021/12/19 05:56:21;;;;;;;18.57;11.20;;;;;;;;;;5008192;28;20428;-60
2021/12/19 05:58:47;;;;;;;15.27;11.20;;;;;;;;;;5016833;28;20238;-60
2021/12/19 06:01:13;;;;;;;16.10;11.43;;;;;;;;;;5019853;28;20272;-60
2021/12/19 06:03:39;;;;;;;16.40;11.60;;;;;;;;;;5014885;28;20420;-61
2021/12/19 06:06:06;;;;;;;15.33;10.73;;;;;;;;;;5016142;28;20702;-60
2021/12/19 06:08:32;;;;;;;15.30;10.97;;;;;;;;;;5019442;28;20480;-60
2021/12/19 06:10:58;;;;;;;15.57;11.03;;;;;;;;;;5026631;28;20428;-60
2021/12/19 06:13:24;;;;;;;15.20;10.13;;;;;;;;;;5022612;28;20250;-60
2021/12/19 06:15:53;;;;;;;18.17;10.47;;;;;;;;;;5019664;28;20242;-60
2021/12/19 06:18:19;;;;;;;18.90;11.13;;;;;;;;;;5016893;28;20340;-60
2021/12/19 06:20:45;;;;;;;14.60;10.10;;;;;;;;;;5020316;28;20335;-60
2021/12/19 06:23:11;;;;;;;13.43;9.77;;;;;;;;;;5018991;28;20228;-60
2021/12/19 06:25:37;;;;;;;16.13;11.07;;;;;;;;;;5013402;28;20259;-60
2021/12/19 06:28:03;;;;;;;15.50;11.00;;;;;;;;;;5019210;28;20588;-60
2021/12/19 06:30:29;;;;;;;15.17;10.60;;;;;;;;;;5016164;28;20275;-60
2021/12/19 06:32:55;;;;;;;14.67;11.07;;;;;;;;;;5024124;28;20258;-60
2021/12/19 06:35:22;;;;;;;16.97;11.50;;;;;;;;;;5014569;28;20423;-60
2021/12/19 06:37:49;;;;;;;16.80;10.63;;;;;;;;;;5018289;28;20243;-60
2021/12/19 06:40:17;;;;;;;17.10;11.03;;;;;;;;;;5021336;28;20347;-60
2021/12/19 06:42:43;;;;;;;16.70;11.67;;;;;;;;;;5021538;28;20232;-60
2021/12/19 06:45:09;;;;;;;16.97;10.90;;;;;;;;;;5022193;28;21122;-60
2021/12/19 06:47:35;;;;;;;17.73;12.40;;;;;;;;;;5005966;28;20241;-60
2021/12/19 06:50:01;;;;;;;18.13;12.07;;;;;;;;;;5021342;28;20780;-60
2021/12/19 06:52:27;;;;;;;16.60;11.70;;;;;;;;;;5009561;28;20266;-60
2021/12/19 06:54:53;;;;;;;19.27;11.40;;;;;;;;;;5017297;28;20236;-60
2021/12/19 06:57:19;;;;;;;18.03;11.20;;;;;;;;;;5014276;28;20228;-60
2021/12/19 06:59:47;;;;;;;19.37;10.97;;;;;;;;;;5013867;28;20228;-60
2021/12/19 07:02:14;;;;;;;17.13;10.90;;;;;;;;;;5009250;28;20228;-60
2021/12/19 07:04:43;;;;;;;18.60;11.30;;;;;;;;;;5015238;28;20239;-60
2021/12/19 07:07:09;;;;;;;16.30;11.43;;;;;;;;;;5000716;28;20236;-60
2021/12/19 07:09:36;;;;;;;17.53;11.17;;;;;;;;;;5005249;28;20820;-60
2021/12/19 07:12:02;;;;;;;17.50;11.40;;;;;;;;;;5019334;28;20232;-60
2021/12/19 07:14:28;;;;;;;17.20;11.57;;;;;;;;;;5005353;28;20355;-60
2021/12/19 07:16:54;;;;;;;18.43;11.40;;;;;;;;;;5001180;28;20231;-60
2021/12/19 07:19:20;;;;;;;19.63;12.17;;;;;;;;;;5013421;28;20236;-60
2021/12/19 07:21:46;;;;;;;20.63;11.87;;;;;;;;;;5016118;28;20368;-60
2021/12/19 07:24:12;;;;;;;17.90;11.17;;;;;;;;;;5012333;28;20240;-60
2021/12/19 07:26:38;;;;;;;18.93;11.67;;;;;;;;;;5016863;28;20368;-60
2021/12/19 07:29:04;;;;;;;17.37;10.80;;;;;;;;;;5018405;28;20232;-60
2021/12/19 07:31:31;;;;;;;17.03;10.67;;;;;;;;;;5020510;28;20419;-61
2021/12/19 07:33:57;;;;;;;14.77;10.03;;;;;;;;;;5005658;28;20392;-60
2021/12/19 07:36:25;;;;;;;18.67;11.33;;;;;;;;;;5016319;28;20232;-60
2021/12/19 07:38:59;;;;;;;18.27;10.43;;;;;;;;;;5021508;28;20239;-61
2021/12/19 07:41:24;;;;;;;17.73;9.80;;;;;;;;;;5020324;28;20325;-60
2021/12/19 07:43:50;;;;;;;15.33;8.93;;;;;;;;;;5018269;28;20230;-60
2021/12/19 07:46:16;;;;;;;14.00;8.67;;;;;;;;;;5020410;28;21018;-60
2021/12/19 07:48:42;;;;;;;13.60;8.30;;;;;;;;;;5018768;28;20312;-60
2021/12/19 07:51:08;;;;;;;13.90;8.20;;;;;;;;;;5012036;28;20285;-60
2021/12/19 07:53:34;;;;;;;12.27;7.70;;;;;;;;;;5016824;28;22310;-60
2021/12/19 07:56:00;;;;;;;13.23;7.63;;;;;;;;;;5022947;28;20227;-60
2021/12/19 07:58:26;;;;;;;13.33;7.80;;;;;;;;;;5015081;28;20681;-60
2021/12/19 08:00:53;;;;;;;10.20;7.10;;;;;;;;;;5017668;28;20247;-60
2021/12/19 08:03:19;;;;;;;11.10;6.83;;;;;;;;;;5012826;28;20319;-60
2021/12/19 08:05:45;;;;;;;13.53;7.47;;;;;;;;;;5016601;28;20236;-60
2021/12/19 08:08:16;;;;;;;9.80;6.93;;;;;;;;;;5010422;28;20227;-60
2021/12/19 08:13:08;;;;;;;10.33;6.97;;;;;;;;;;5015638;28;20648;-60
2021/12/19 08:15:34;;;;;;;10.20;6.53;;;;;;;;;;5014897;28;21141;-60
2021/12/19 08:18:00;;;;;;;9.73;6.23;;;;;;;;;;5008943;28;21271;-60
2021/12/19 08:20:27;;;;;;;9.03;6.37;;;;;;;;;;5008144;28;20336;-60
2021/12/19 08:22:53;;;;;;;9.57;6.17;;;;;;;;;;5013928;28;20427;-60
2021/12/19 08:25:19;;;;;;;10.57;6.70;;;;;;;;;;5014213;28;20235;-60
2021/12/19 08:27:45;;;;;;;11.50;6.57;;;;;;;;;;5009706;28;20239;-60
2021/12/19 08:30:11;;;;;;;12.03;7.20;;;;;;;;;;5002757;28;20225;-60
2021/12/19 08:32:37;;;;;;;11.00;6.77;;;;;;;;;;5008993;28;20251;-60
2021/12/19 08:35:04;;;;;;;10.50;6.40;;;;;;;;;;5006425;28;20228;-60
2021/12/19 08:37:29;;;;;;;7.47;6.00;;;;;;;;;;5005995;28;20720;-60
2021/12/19 08:39:56;;;;;;;12.07;7.33;;;;;;;;;;5008904;28;20297;-60
2021/12/19 08:42:22;;;;;;;11.57;7.00;;;;;;;;;;5013751;28;20224;-60
2021/12/19 08:44:48;;;;;;;12.67;7.37;;;;;;;;;;5007615;28;20239;-61
2021/12/19 08:47:14;;;;;;;10.70;7.10;;;;;;;;;;5015997;28;20725;-61
2021/12/19 08:49:40;;;;;;;12.07;7.63;;;;;;;;;;4991909;28;21177;-61
2021/12/19 08:52:06;;;;;;;12.63;7.73;;;;;;;;;;5006116;28;20232;-60
2021/12/19 08:54:32;;;;;;;12.53;8.57;;;;;;;;;;5013409;28;20397;-60
2021/12/19 08:56:58;;;;;;;13.33;8.50;;;;;;;;;;5013434;28;20275;-60
2021/12/19 08:59:24;;;;;;;15.20;7.43;;;;;;;;;;5012056;28;20735;-60
2021/12/19 09:01:50;;;;;;;11.83;7.53;;;;;;;;;;5021084;28;20417;-61
2021/12/19 09:04:16;;;;;;;12.70;7.40;;;;;;;;;;5010149;28;20335;-60
2021/12/19 09:06:42;;;;;;;11.77;7.73;;;;;;;;;;5011501;28;20291;-61
2021/12/19 09:09:09;;;;;;;12.63;7.70;;;;;;;;;;5017448;28;20319;-61
2021/12/19 09:11:35;;;;;;;10.50;7.50;;;;;;;;;;5016301;28;20236;-60
2021/12/19 09:14:01;;;;;;;9.73;6.80;;;;;;;;;;5012514;28;20233;-61
2021/12/19 09:16:27;;;;;;;10.33;7.27;;;;;;;;;;5004509;28;20244;-61
2021/12/19 09:18:53;;;;;;;9.70;6.73;;;;;;;;;;5013180;28;20614;-61
2021/12/19 09:21:19;;;;;;;10.20;6.87;;;;;;;;;;5013084;28;20235;-60
2021/12/19 09:23:45;;;;;;;10.10;7.03;;;;;;;;;;5009480;28;20225;-61
2021/12/19 09:26:11;;;;;;;8.20;5.90;;;;;;;;;;5009304;28;20236;-60
2021/12/19 09:28:37;;;;;;;9.57;6.33;;;;;;;;;;5005988;28;20237;-61
2021/12/19 09:31:03;;;;;;;9.27;5.67;;;;;;;;;;4996314;28;20288;-61
2021/12/19 09:33:29;;;;;;;8.67;5.90;;;;;;;;;;5016286;28;20229;-61
2021/12/19 09:35:57;;;;;;;9.30;5.97;;;;;;;;;;5019014;28;20329;-60
2021/12/19 09:38:23;;;;;;;8.20;5.43;;;;;;;;;;5013512;28;20259;-61
2021/12/19 09:40:49;;;;;;;6.67;5.23;;;;;;;;;;4999129;28;21792;-60
2021/12/19 09:46:00;;;;;;;7.23;5.07;;;;;;;;;;5012697;28;20592;-60
2021/12/19 09:48:29;;;;;;;7.20;4.90;;;;;;;;;;5011118;28;20232;-61
2021/12/19 09:50:55;;;;;;;8.30;5.37;;;;;;;;;;5009490;28;20232;-61
2021/12/19 09:53:21;;;;;;;8.87;5.07;;;;;;;;;;5013698;28;20703;-61
2021/12/19 09:55:47;;;;;;;8.13;5.53;;;;;;;;;;4999045;28;20302;-61
2021/12/19 09:58:13;;;;;;;5.87;4.33;;;;;;;;;;5012495;28;20234;-61
2021/12/19 10:00:39;;;;;;;5.67;4.40;;;;;;;;;;5003802;28;20274;-61
2021/12/19 10:03:05;;;;;;;5.23;4.50;;;;;;;;;;5006401;28;20232;-61
2021/12/19 10:05:31;;;;;;;5.80;4.30;;;;;;;;;;5012341;28;20729;-61
2021/12/19 10:07:58;;;;;;;6.27;4.37;;;;;;;;;;5024203;28;20615;-61
2021/12/19 10:10:58;;;;;;;5.63;4.33;;;;;;;;;;5013146;28;20319;-61
2021/12/19 10:13:33;;;;;;;5.50;4.17;;;;;;;;;;5007212;28;20240;-61
2021/12/19 10:15:59;;;;;;;5.60;4.30;;;;;;;;;;5015251;28;20609;-61
2021/12/19 10:18:25;;;;;;;7.37;4.77;;;;;;;;;;5013659;28;20240;-61
2021/12/19 10:20:59;;;;;;;5.83;4.40;;;;;;;;;;5019743;28;20255;-61
2021/12/19 10:23:32;;;;;;;5.67;4.70;;;;;;;;;;5015801;28;20240;-61
2021/12/19 10:26:16;;;;;;;5.97;4.77;;;;;;;;;;5019015;28;20248;-60
2021/12/19 10:28:53;;;;;;;5.80;4.30;;;;;;;;;;5009946;28;20243;-61
2021/12/19 10:31:19;;;;;;;5.53;4.30;;;;;;;;;;5010101;28;20505;-61
2021/12/19 10:33:45;;;;;;;5.33;4.47;;;;;;;;;;5006239;28;20236;-61
2021/12/19 10:36:11;;;;;;;5.50;4.17;;;;;;;;;;5008755;28;20259;-61
2021/12/19 10:38:47;;;;;;;6.07;4.17;;;;;;;;;;5008079;28;20232;-61
2021/12/19 10:41:14;;;;;;;6.30;4.20;;;;;;;;;;5017041;28;20236;-61
2021/12/19 10:44:00;;;;;;;5.90;4.03;;;;;;;;;;5014223;28;20235;-61
2021/12/19 10:46:27;;;;;;;5.73;4.07;;;;;;;;;;5004170;28;20327;-61
2021/12/19 10:48:52;;;;;;;4.53;3.90;;;;;;;;;;5018520;28;20243;-61
2021/12/19 10:51:19;;;;;;;6.13;4.30;;;;;;;;;;5013777;28;20797;-61
2021/12/19 10:53:45;;;;;;;5.03;3.90;;;;;;;;;;5010283;28;20819;-61
2021/12/19 10:56:15;;;;;;;4.40;4.00;;;;;;;;;;5019813;28;20258;-61
2021/12/19 10:58:43;;;;;;;5.20;3.97;;;;;;;;;;5008995;28;20310;-61
2021/12/19 11:01:10;;;;;;;6.00;4.33;;;;;;;;;;4989732;28;20228;-60
2021/12/19 11:03:36;;;;;;;4.97;3.97;;;;;;;;;;5002374;28;20232;-61
2021/12/19 11:06:08;;;;;;;5.03;4.37;;;;;;;;;;5017319;28;20675;-61
2021/12/19 11:08:34;;;;;;;5.67;4.70;;;;;;;;;;5012780;28;20419;-61
2021/12/19 11:11:00;;;;;;;5.80;4.63;;;;;;;;;;5020676;28;20223;-61
2021/12/19 11:13:26;;;;;;;5.80;5.03;;;;;;;;;;5022061;28;20231;-61
2021/12/19 11:15:52;;;;;;;5.70;4.57;;;;;;;;;;5006418;28;20250;-61
2021/12/19 11:18:17;;;;;;;6.50;4.40;;;;;;;;;;5015501;28;20506;-61
2021/12/19 11:20:43;;;;;;;5.87;4.10;;;;;;;;;;5016542;28;20241;-61
2021/12/19 11:23:09;;;;;;;5.13;3.80;;;;;;;;;;5012428;28;20272;-61
2021/12/19 11:25:36;;;;;;;5.70;4.10;;;;;;;;;;5004006;28;20239;-61
2021/12/19 11:28:02;;;;;;;4.80;4.10;;;;;;;;;;5025194;28;20232;-61
2021/12/19 11:30:28;;;;;;;6.87;4.10;;;;;;;;;;5003800;28;20641;-60
2021/12/19 11:33:09;;;;;;;6.23;3.90;;;;;;;;;;5015690;28;20228;-61
2021/12/19 11:35:36;;;;;;;4.97;3.73;;;;;;;;;;5016337;28;20244;-60
2021/12/19 11:38:03;;;;;;;6.80;4.30;;;;;;;;;;5016807;28;20819;-61
2021/12/19 11:40:31;;;;;;;4.77;3.93;;;;;;;;;;5014885;28;20530;-60
2021/12/19 11:43:04;;;;;;;5.63;3.50;;;;;;;;;;5014554;28;20516;-61
2021/12/19 11:45:37;;;;;;;5.20;3.70;;;;;;;;;;5000121;28;20351;-61
2021/12/19 11:48:32;;;;;;;4.90;3.57;;;;;;;;;;4994283;28;20232;-61
2021/12/19 11:50:59;;;;;;;4.80;3.50;;;;;;;;;;5001964;28;20315;-61
2021/12/19 11:53:32;;;;;;;4.40;3.70;;;;;;;;;;5002034;28;20534;-61
2021/12/19 11:56:09;;;;;;;3.63;3.20;;;;;;;;;;5001402;28;20236;-61
2021/12/19 11:58:38;;;;;;;5.13;3.40;;;;;;;;;;5005793;28;20219;-64
2021/12/19 12:01:08;;;;;;;11.00;4.33;;;;;;;;;;5009399;28;20319;-63
2021/12/19 12:03:44;;;;;;;5.13;3.70;;;;;;;;;;5003837;28;20308;-64
2021/12/19 12:06:20;;;;;;;4.23;3.83;;;;;;;;;;5015575;28;20314;-63
2021/12/19 12:09:05;;;;;;;5.30;4.07;;;;;;;;;;5013628;28;20249;-64
2021/12/19 12:11:31;;;;;;;5.00;3.83;;;;;;;;;;5014806;28;20228;-63
2021/12/19 12:14:20;;;;;;;10.20;4.13;;;;;;;;;;5003308;28;20231;-63
2021/12/19 12:16:53;;;;;;;5.97;3.93;;;;;;;;;;4987505;28;20229;-63
2021/12/19 12:19:27;;;;;;;6.67;4.17;;;;;;;;;;5009295;28;20643;-63
2021/12/19 12:21:53;;;;;;;4.97;3.67;;;;;;;;;;4990401;28;20240;-64
2021/12/19 12:24:19;;;;;;;5.13;4.10;;;;;;;;;;5016998;28;21321;-63
2021/12/19 12:26:51;;;;;;;6.27;3.77;;;;;;;;;;5013188;28;20216;-63
2021/12/19 12:29:17;;;;;;;4.77;3.87;;;;;;;;;;5018015;28;20228;-63
2021/12/19 12:31:43;;;;;;;4.33;3.87;;;;;;;;;;5018390;28;20243;-64
2021/12/19 12:34:10;;;;;;;6.60;4.27;;;;;;;;;;5026682;28;20223;-63
2021/12/19 12:36:36;;;;;;;6.17;4.30;;;;;;;;;;5028144;28;20674;-63
2021/12/19 12:39:06;;;;;;;5.10;4.60;;;;;;;;;;5026485;28;20567;-63
2021/12/19 12:44:05;;;;;;;4.77;4.27;;;;;;;;;;5022561;28;20228;-63
2021/12/19 12:46:32;;;;;;;5.23;4.00;;;;;;;;;;5026499;28;20258;-63
2021/12/19 12:49:04;;;;;;;4.10;3.73;;;;;;;;;;5023401;28;20692;-63
2021/12/19 12:51:38;;;;;;;4.60;3.67;;;;;;;;;;5019731;28;20337;-63
2021/12/19 12:54:07;;;;;;;4.77;3.60;;;;;;;;;;5022433;28;20240;-63
2021/12/19 12:56:36;;;;;;;4.60;3.50;;;;;;;;;;5020452;28;20296;-63
2021/12/19 12:59:02;;;;;;;3.60;3.03;;;;;;;;;;5023423;28;20315;-63
2021/12/19 13:01:30;;;;;;;4.03;3.23;;;;;;;;;;5018225;28;20602;-63
2021/12/19 13:04:00;;;;;;;4.20;3.60;;;;;;;;;;5025745;28;20340;-63
2021/12/19 13:06:36;;;;;;;3.87;3.33;;;;;;;;;;5022322;28;20235;-63
2021/12/19 13:09:11;;;;;;;3.60;3.20;;;;;;;;;;5025320;28;20244;-63
2021/12/19 13:11:37;;;;;;;4.20;3.50;;;;;;;;;;5019817;28;20607;-63
2021/12/19 13:14:12;;;;;;;3.30;3.00;;;;;;;;;;5023675;28;20232;-63
2021/12/19 13:16:48;;;;;;;3.90;3.10;;;;;;;;;;5021649;28;20231;-63
2021/12/19 13:19:35;;;;;;;3.47;2.90;;;;;;;;;;5022326;28;20231;-63
2021/12/19 13:22:01;;;;;;;4.67;3.30;;;;;;;;;;5025444;28;20243;-63
2021/12/19 13:24:27;;;;;;;3.63;2.50;;;;;;;;;;5021266;28;20664;-63
2021/12/19 13:27:03;;;;;;;3.83;2.80;;;;;;;;;;5021970;28;20212;-63
2021/12/19 13:29:29;;;;;;;3.23;2.90;;;;;;;;;;5020651;28;20748;-63
2021/12/19 13:31:56;;;;;;;4.53;2.63;;;;;;;;;;5018174;28;20227;-63
2021/12/19 13:34:22;;;;;;;2.83;2.50;;;;;;;;;;5017634;28;20232;-63
2021/12/19 13:37:03;;;;;;;3.10;2.80;;;;;;;;;;5008903;28;20248;-63
2021/12/19 13:39:29;;;;;;;2.70;2.50;;;;;;;;;;5011134;28;20246;-65
2021/12/19 13:41:55;;;;;;;3.20;2.53;;;;;;;;;;5013924;28;20922;-60
2021/12/19 13:44:31;;;;;;;2.80;2.60;;;;;;;;;;5016737;28;20802;-59
2021/12/19 13:46:57;;;;;;;2.70;2.50;;;;;;;;;;5015751;28;20237;-60
2021/12/19 13:49:23;;;;;;;2.73;2.53;;;;;;;;;;5020693;28;20227;-60
2021/12/19 13:51:49;;;;;;;2.87;2.60;;;;;;;;;;5011488;28;20235;-60
2021/12/19 13:54:15;;;;;;;3.23;2.30;;;;;;;;;;5007515;28;20659;-60
2021/12/19 13:56:41;;;;;;;2.63;2.30;;;;;;;;;;5012104;28;20307;-59
2021/12/19 13:59:17;;;;;;;2.73;2.40;;;;;;;;;;5011949;28;20228;-60
2021/12/19 14:01:43;;;;;;;2.47;2.20;;;;;;;;;;5010175;28;20274;-60
2021/12/19 14:04:18;;;;;;;2.60;2.20;;;;;;;;;;5009372;28;20318;-60
2021/12/19 14:06:48;;;;;;;2.30;2.10;;;;;;;;;;4990956;28;21592;-60
2021/12/19 14:09:14;;;;;;;2.40;2.20;;;;;;;;;;5001339;28;20267;-60
2021/12/19 14:11:42;;;;;;;3.07;1.97;;;;;;;;;;5010434;28;20239;-60
2021/12/19 14:14:12;;;;;;;2.40;2.20;;;;;;;;;;4997318;28;20263;-60
2021/12/19 14:16:46;;;;;;;2.43;2.23;;;;;;;;;;5014981;28;20798;-60
2021/12/19 14:19:19;;;;;;;2.43;2.20;;;;;;;;;;5008746;28;20659;-60
2021/12/19 14:21:45;;;;;;;3.17;2.23;;;;;;;;;;5017895;28;20238;-59
2021/12/19 14:24:22;;;;;;;2.50;2.30;;;;;;;;;;5004968;28;20224;-59
2021/12/19 14:26:49;;;;;;;3.17;2.30;;;;;;;;;;5014914;28;20283;-60
2021/12/19 14:29:18;;;;;;;2.83;2.63;;;;;;;;;;5010080;28;20244;-60
2021/12/19 14:31:48;;;;;;;2.50;2.30;;;;;;;;;;5001894;28;20706;-60
2021/12/19 14:34:21;;;;;;;2.90;2.30;;;;;;;;;;5006012;28;20240;-60
2021/12/19 14:36:47;;;;;;;2.60;2.40;;;;;;;;;;5003015;28;20334;-60
2021/12/19 14:39:15;;;;;;;2.50;2.30;;;;;;;;;;5001477;28;20231;-60
2021/12/19 14:41:42;;;;;;;2.83;2.27;;;;;;;;;;4997293;28;20773;-60
2021/12/19 14:44:17;;;;;;;2.50;2.30;;;;;;;;;;5001962;28;20267;-60
2021/12/19 14:46:43;;;;;;;2.87;2.60;;;;;;;;;;5011440;28;20731;-60
2021/12/19 14:49:10;;;;;;;2.73;2.53;;;;;;;;;;5012706;28;20292;-59
2021/12/19 14:51:36;;;;;;;2.73;2.53;;;;;;;;;;5009941;28;20232;-60
2021/12/19 14:54:02;;;;;;;3.10;2.80;;;;;;;;;;5003895;28;20769;-60
2021/12/19 14:56:29;;;;;;;2.57;2.37;;;;;;;;;;5013148;28;20237;-59
2021/12/19 14:58:59;;;;;;;3.57;2.97;;;;;;;;;;4991098;28;20242;-59
2021/12/19 15:01:30;;;;;;;3.20;2.90;;;;;;;;;;4995832;28;20238;-59
2021/12/19 15:04:02;;;;;;;3.10;2.80;;;;;;;;;;5002778;28;20228;-59
2021/12/19 15:06:31;;;;;;;2.90;2.70;;;;;;;;;;4995520;28;20228;-59
2021/12/19 15:08:57;;;;;;;4.17;2.63;;;;;;;;;;4992053;28;20221;-60
2021/12/19 15:11:23;;;;;;;3.47;2.90;;;;;;;;;;5000514;28;20792;-60
2021/12/19 15:13:49;;;;;;;3.33;3.03;;;;;;;;;;5008544;28;20230;-60
2021/12/19 15:16:15;;;;;;;3.63;2.90;;;;;;;;;;4998310;28;21553;-60
2021/12/19 15:18:44;;;;;;;3.47;3.17;;;;;;;;;;4996864;28;20586;-60
2021/12/19 15:21:10;;;;;;;4.23;3.10;;;;;;;;;;4993158;28;20860;-59
2021/12/19 15:23:37;;;;;;;3.10;2.80;;;;;;;;;;4982986;28;20571;-60
2021/12/19 15:26:03;;;;;;;3.43;3.13;;;;;;;;;;5001393;28;20705;-59
2021/12/19 15:28:29;;;;;;;3.40;3.10;;;;;;;;;;5010414;28;20237;-59
2021/12/19 15:30:55;;;;;;;3.20;2.90;;;;;;;;;;5003867;28;20675;-60
2021/12/19 15:33:22;;;;;;;5.37;3.50;;;;;;;;;;4998532;28;22319;-60
2021/12/19 15:35:48;;;;;;;3.90;3.20;;;;;;;;;;5002045;28;20236;-60
2021/12/19 15:38:14;;;;;;;3.50;3.20;;;;;;;;;;5004825;28;20239;-60
2021/12/19 15:40:40;;;;;;;4.87;3.50;;;;;;;;;;4997292;28;20311;-60
2021/12/19 15:43:06;;;;;;;3.37;2.90;;;;;;;;;;4999898;28;20235;-59
2021/12/19 15:45:32;;;;;;;4.60;3.27;;;;;;;;;;5002773;28;20902;-59